Time;durP1;ratioP1;P1;durP2;ratioP2;P2;SDS_P1;SDS_P2;PMS_P1;PMS_P2;Temp;Humidity;BMP_temperature;BMP_pressure;BME280_temperature;BME280_humidity;BME280_pressure;Samples;Min_cycle;Max_cycle;Signal;HPM_P1;HPM_P2
2021/05/15 00:01:35;;;;;;;7.22;4.00;;;11.00;99.90;;;-145.59;100.00;63944.34;5075454;28;20033;-63
2021/05/15 00:04:02;;;;;;;8.68;4.13;;;11.10;99.90;;;-145.59;100.00;63944.34;5074948;28;20063;-62
2021/05/15 00:06:28;;;;;;;13.05;3.92;;;11.10;99.90;;;-145.59;100.00;63944.34;5058585;28;20028;-63
2021/05/15 00:08:55;;;;;;;4.90;4.25;;;11.20;99.90;;;-145.59;100.00;63944.34;5074699;28;20475;-64
2021/05/15 00:11:21;;;;;;;8.20;4.35;;;11.20;99.90;;;-145.59;100.00;63944.34;5075002;28;20036;-63
2021/05/15 00:13:47;;;;;;;9.50;4.63;;;11.20;99.90;;;-145.59;100.00;63944.34;5075040;28;20036;-63
2021/05/15 00:16:13;;;;;;;7.15;4.15;;;11.20;99.90;;;-145.59;100.00;63944.34;5074833;28;20486;-61
2021/05/15 00:18:40;;;;;;;8.15;4.45;;;11.20;99.90;;;-145.59;100.00;63944.34;5074782;28;20036;-61
2021/05/15 00:21:09;;;;;;;9.52;4.95;;;11.30;99.90;;;-145.59;100.00;63944.34;5074654;28;20025;-65
2021/05/15 00:23:35;;;;;;;12.88;5.18;;;11.30;99.90;;;-145.59;100.00;63944.34;5057730;28;20437;-63
2021/05/15 00:26:01;;;;;;;7.95;4.22;;;11.30;99.90;;;-145.59;100.00;63944.34;5074735;28;20370;-62
2021/05/15 00:28:30;;;;;;;10.40;4.72;;;11.30;99.90;;;-145.59;100.00;63944.34;5074714;28;20033;-62
2021/05/15 00:30:56;;;;;;;4.60;3.95;;;11.40;99.90;;;-145.59;100.00;63944.34;5057851;28;20076;-63
2021/05/15 00:33:24;;;;;;;9.10;4.60;;;11.40;99.90;;;-145.59;100.00;63944.34;5074781;28;20041;-62
2021/05/15 00:35:49;;;;;;;8.55;4.82;;;11.50;99.90;;;-145.59;100.00;63944.34;5074410;28;20035;-62
2021/05/15 00:38:15;;;;;;;8.63;4.60;;;11.50;99.90;;;-145.59;100.00;63944.34;5075703;28;20399;-63
2021/05/15 00:40:41;;;;;;;5.35;3.67;;;11.50;99.90;;;-145.59;100.00;63944.34;5074601;28;20497;-62
2021/05/15 00:43:08;;;;;;;10.20;4.97;;;11.40;99.90;;;-145.59;100.00;63944.34;5057995;28;20491;-65
2021/05/15 00:45:34;;;;;;;8.73;4.55;;;11.50;99.90;;;-145.59;100.00;63944.34;5074522;28;20032;-64
2021/05/15 00:48:00;;;;;;;7.68;3.78;;;11.40;99.90;;;-145.59;100.00;63944.34;5075330;28;20526;-62
2021/05/15 00:50:27;;;;;;;10.18;4.70;;;11.40;99.90;;;-145.59;100.00;63944.34;5057530;28;20150;-62
2021/05/15 00:52:52;;;;;;;9.18;4.82;;;11.40;99.90;;;-145.59;100.00;63944.34;5057730;28;20479;-72
2021/05/15 00:55:18;;;;;;;12.02;6.05;;;11.50;99.90;;;-145.59;100.00;63944.34;5074087;28;20086;-71
2021/05/15 00:57:44;;;;;;;5.07;3.95;;;11.50;99.90;;;-145.59;100.00;63944.34;5040639;28;20051;-71
2021/05/15 01:00:14;;;;;;;7.20;4.07;;;11.50;99.90;;;-145.59;100.00;63944.34;5090834;28;20103;-72
2021/05/15 01:02:40;;;;;;;8.48;3.88;;;11.60;99.90;;;-145.59;100.00;63944.34;5073773;28;20032;-73
2021/05/15 01:05:10;;;;;;;7.53;4.47;;;11.60;99.90;;;-145.59;100.00;63944.34;5074043;28;20526;-72
2021/05/15 01:07:37;;;;;;;9.57;4.20;;;11.60;99.90;;;-145.59;100.00;63944.34;5074320;28;20028;-72
2021/05/15 01:10:05;;;;;;;7.28;4.15;;;11.60;99.90;;;-145.59;100.00;63944.34;5073799;28;20071;-72
2021/05/15 01:12:32;;;;;;;5.28;4.03;;;11.60;99.90;;;-145.59;100.00;63944.34;5073952;28;20086;-73
2021/05/15 01:14:58;;;;;;;8.98;4.45;;;11.60;99.90;;;-145.59;100.00;63944.34;5073542;28;20437;-73
2021/05/15 01:17:24;;;;;;;7.97;4.13;;;11.60;99.90;;;-145.59;100.00;63944.34;5073666;28;20032;-71
2021/05/15 01:19:50;;;;;;;7.03;4.63;;;11.60;99.90;;;-145.59;100.00;63944.34;5073674;28;20032;-73
2021/05/15 01:22:16;;;;;;;7.07;4.88;;;11.60;99.90;;;-145.59;100.00;63944.34;5073666;28;20387;-72
2021/05/15 01:24:46;;;;;;;7.60;4.75;;;11.60;99.90;;;-145.59;100.00;63944.34;5073508;28;20040;-72
2021/05/15 01:27:14;;;;;;;8.25;4.03;;;11.60;99.90;;;-145.59;100.00;63944.34;5073656;28;20020;-72
2021/05/15 01:29:42;;;;;;;6.60;4.18;;;11.60;99.90;;;-145.59;100.00;63944.34;5056752;28;20086;-69
2021/05/15 01:32:09;;;;;;;13.02;4.53;;;11.60;99.90;;;-145.59;100.00;63944.34;5074561;28;20116;-72
2021/05/15 01:34:35;;;;;;;6.90;4.03;;;11.60;99.90;;;-145.59;100.00;63944.34;5056781;28;20437;-72
2021/05/15 01:37:01;;;;;;;8.65;4.07;;;11.60;99.90;;;-145.59;100.00;63944.34;5056720;28;20060;-72
2021/05/15 01:39:27;;;;;;;7.97;4.35;;;11.60;99.90;;;-145.59;100.00;63944.34;5073392;28;20487;-72
2021/05/15 01:41:53;;;;;;;7.60;4.20;;;11.60;99.90;;;-145.59;100.00;63944.34;5074581;28;20036;-72
2021/05/15 01:44:19;;;;;;;6.78;3.67;;;11.60;99.90;;;-145.59;100.00;63944.34;5073179;28;20546;-72
2021/05/15 01:46:45;;;;;;;9.00;4.35;;;11.50;99.90;;;-145.59;100.00;63944.34;5074273;28;20033;-73
2021/05/15 01:49:11;;;;;;;6.78;3.88;;;11.70;99.90;;;-145.59;100.00;63944.34;5073040;28;20060;-72
2021/05/15 01:51:39;;;;;;;4.72;3.45;;;11.60;99.90;;;-145.59;100.00;63944.34;5074401;28;20060;-72
2021/05/15 01:54:05;;;;;;;5.65;4.05;;;11.60;99.90;;;-145.59;100.00;63944.34;5056537;28;20064;-72
2021/05/15 01:56:32;;;;;;;4.28;3.40;;;11.60;99.90;;;-145.59;100.00;63944.34;5074166;28;20041;-71
2021/05/15 01:58:58;;;;;;;5.28;3.70;;;11.70;99.90;;;-145.59;100.00;63944.34;5072795;28;20028;-71
2021/05/15 02:01:26;;;;;;;9.63;3.88;;;11.70;99.90;;;-145.59;100.00;63944.34;5072848;28;20033;-72
2021/05/15 02:03:53;;;;;;;5.75;3.22;;;11.60;99.90;;;-145.59;100.00;63944.34;5056225;28;20403;-71
2021/05/15 02:06:19;;;;;;;5.85;4.20;;;11.60;99.90;;;-145.59;100.00;63944.34;5072834;28;20107;-71
2021/05/15 02:08:46;;;;;;;5.60;3.22;;;11.50;99.90;;;-145.59;100.00;63944.34;5056001;28;20391;-70
2021/05/15 02:11:16;;;;;;;7.10;4.25;;;11.50;99.90;;;-145.59;100.00;63944.34;5073938;28;20099;-72
2021/05/15 02:13:46;;;;;;;6.25;3.38;;;11.40;99.90;;;-145.59;100.00;63944.34;5072449;28;20037;-71
2021/05/15 02:16:12;;;;;;;6.13;3.15;;;11.30;99.90;;;-145.59;100.00;63944.34;5072689;28;20033;-73
2021/05/15 02:18:38;;;;;;;3.95;3.30;;;11.30;99.90;;;-145.59;100.00;63944.34;5073666;28;20047;-72
2021/05/15 02:21:05;;;;;;;4.85;2.92;;;11.30;99.90;;;-145.59;100.00;63944.34;5072611;28;20430;-72
2021/05/15 02:23:32;;;;;;;5.78;3.60;;;11.30;99.90;;;-145.59;100.00;63944.34;5073917;28;20135;-72
2021/05/15 02:25:58;;;;;;;5.72;3.25;;;11.20;99.90;;;-145.59;100.00;63944.34;5072560;28;20521;-72
2021/05/15 02:28:24;;;;;;;9.40;3.20;;;11.20;99.90;;;-145.59;100.00;63944.34;5072220;28;20106;-73
2021/05/15 02:30:51;;;;;;;5.03;3.03;;;11.20;99.90;;;-145.59;100.00;63944.34;5072044;28;20499;-71
2021/05/15 02:33:18;;;;;;;4.40;3.38;;;11.10;99.90;;;-145.59;100.00;63944.34;5055506;28;20040;-71
2021/05/15 02:35:45;;;;;;;5.05;2.78;;;11.10;99.90;;;-145.59;100.00;63944.34;5072224;28;20367;-72
2021/05/15 02:38:13;;;;;;;6.05;3.45;;;11.10;99.90;;;-145.59;100.00;63944.34;5072544;28;20032;-72
2021/05/15 02:40:41;;;;;;;7.03;2.78;;;11.00;99.90;;;-145.59;100.00;63944.34;5055606;28;20028;-72
2021/05/15 02:43:07;;;;;;;4.95;3.13;;;10.90;99.90;;;-145.59;100.00;63944.34;5073209;28;20043;-72
2021/05/15 02:45:33;;;;;;;5.55;3.13;;;10.90;99.90;;;-145.59;100.00;63944.34;5055591;28;20033;-72
2021/05/15 02:47:59;;;;;;;6.22;3.95;;;10.90;99.90;;;-145.59;100.00;63944.34;5072396;28;20098;-72
2021/05/15 02:50:26;;;;;;;6.88;3.88;;;10.90;99.90;;;-145.59;100.00;63944.34;5072000;28;20036;-71
2021/05/15 02:52:52;;;;;;;8.75;4.32;;;10.90;99.90;;;-145.59;100.00;63944.34;5072020;28;20142;-64
2021/05/15 02:55:22;;;;;;;11.85;4.35;;;10.80;99.90;;;-145.59;100.00;63944.34;5072182;28;20532;-69
2021/05/15 02:57:50;;;;;;;7.97;4.75;;;10.90;99.90;;;-145.59;100.00;63944.34;5073044;28;20131;-66
2021/05/15 03:00:26;;;;;;;10.15;4.88;;;10.90;99.90;;;-145.59;100.00;63944.34;5055337;28;20025;-65
2021/05/15 03:02:52;;;;;;;16.15;6.10;;;10.80;99.90;;;-145.59;100.00;63944.34;5071800;28;20090;-64
2021/05/15 03:05:23;;;;;;;9.48;5.25;;;10.70;99.90;;;-145.59;100.00;63944.34;5071914;28;20507;-66
2021/05/15 03:07:50;;;;;;;11.10;5.55;;;10.80;99.90;;;-145.59;100.00;63944.34;5071860;28;20033;-65
2021/05/15 03:10:17;;;;;;;11.40;5.50;;;10.90;99.90;;;-145.59;100.00;63944.34;5055489;28;20085;-62
2021/05/15 03:12:43;;;;;;;7.97;5.40;;;10.90;99.90;;;-145.59;100.00;63944.34;5055404;28;20028;-63
2021/05/15 03:15:12;;;;;;;6.70;4.88;;;10.90;99.90;;;-145.59;100.00;63944.34;5071555;28;20066;-68
2021/05/15 03:17:43;;;;;;;6.70;4.22;;;11.00;99.90;;;-145.59;100.00;63944.34;5055169;28;20060;-63
2021/05/15 03:20:16;;;;;;;6.43;4.15;;;10.90;99.90;;;-145.59;100.00;63944.34;5038497;28;20372;-65
2021/05/15 03:22:43;;;;;;;9.32;5.45;;;10.80;99.90;;;-145.59;100.00;63944.34;5055614;28;20032;-63
2021/05/15 03:25:10;;;;;;;8.15;4.95;;;10.70;99.90;;;-145.59;100.00;63944.34;5072375;28;20040;-65
2021/05/15 03:27:36;;;;;;;7.75;4.45;;;10.70;99.90;;;-145.59;100.00;63944.34;5075825;28;20033;-64
2021/05/15 03:30:05;;;;;;;9.85;4.93;;;10.70;99.90;;;-145.59;100.00;63944.34;5075312;28;20083;-66
2021/05/15 03:32:31;;;;;;;5.82;4.10;;;10.70;99.90;;;-145.59;100.00;63944.34;5075828;28;20040;-64
2021/05/15 03:34:57;;;;;;;8.07;4.82;;;10.80;99.90;;;-145.59;100.00;63944.34;5075660;28;20093;-63
2021/05/15 03:37:22;;;;;;;12.18;5.18;;;10.70;99.90;;;-145.59;100.00;63944.34;5058957;28;20563;-65
2021/05/15 03:39:49;;;;;;;10.15;4.50;;;10.70;99.90;;;-145.59;100.00;63944.34;5075526;28;20447;-65
2021/05/15 03:42:15;;;;;;;10.35;4.75;;;10.70;99.90;;;-145.59;100.00;63944.34;5058862;28;20028;-64
2021/05/15 03:44:41;;;;;;;9.27;4.68;;;10.80;99.90;;;-145.59;100.00;63944.34;5075630;28;20040;-63
2021/05/15 03:47:06;;;;;;;8.27;4.75;;;10.80;99.90;;;-145.59;100.00;63944.34;5058879;28;20115;-72
2021/05/15 03:49:32;;;;;;;12.73;6.30;;;10.90;99.90;;;-145.59;100.00;63944.34;5058737;28;20036;-71
2021/05/15 03:51:59;;;;;;;8.27;4.95;;;11.00;99.90;;;-145.59;100.00;63944.34;5075406;28;20490;-72
2021/05/15 03:54:25;;;;;;;8.77;5.43;;;11.00;99.90;;;-145.59;100.00;63944.34;5059001;28;20052;-72
2021/05/15 03:56:51;;;;;;;6.97;5.32;;;11.10;99.90;;;-145.59;100.00;63944.34;5075419;28;20035;-71
2021/05/15 03:59:17;;;;;;;10.10;5.22;;;11.10;99.90;;;-145.59;100.00;63944.34;5058712;28;20123;-72
2021/05/15 04:01:43;;;;;;;9.05;6.47;;;11.10;99.90;;;-145.59;100.00;63944.34;5058438;28;20397;-71
2021/05/15 04:04:09;;;;;;;10.07;5.68;;;11.10;99.90;;;-145.59;100.00;63944.34;5074853;28;20394;-66
2021/05/15 04:06:35;;;;;;;11.35;5.75;;;11.10;99.90;;;-145.59;100.00;63944.34;5075195;28;20086;-67
2021/05/15 04:09:01;;;;;;;8.52;5.50;;;11.20;99.90;;;-145.59;100.00;63944.34;5058215;28;20025;-65
2021/05/15 04:11:34;;;;;;;11.45;6.30;;;11.20;99.90;;;-145.59;100.00;63944.34;5075343;28;20402;-66
2021/05/15 04:19:12;;;;;;;12.10;5.15;;;11.10;99.90;;;-145.59;100.00;63944.34;5075065;28;20424;-67
2021/05/15 04:21:37;;;;;;;12.23;5.90;;;11.10;99.90;;;-145.59;100.00;63944.34;5075045;28;20394;-67
2021/05/15 04:24:04;;;;;;;9.65;6.28;;;11.00;99.90;;;-145.59;100.00;63944.34;5075906;28;20029;-67
2021/05/15 04:26:30;;;;;;;13.50;6.13;;;11.00;99.90;;;-145.59;100.00;63944.34;5041637;28;20441;-67
2021/05/15 04:28:56;;;;;;;10.30;6.13;;;11.10;99.90;;;-145.59;100.00;63944.34;5057588;28;20125;-67
2021/05/15 04:31:22;;;;;;;11.48;6.53;;;11.10;99.90;;;-145.59;100.00;63944.34;5074539;28;20036;-66
2021/05/15 04:33:48;;;;;;;10.50;7.35;;;11.00;99.90;;;-145.59;100.00;63944.34;5057860;28;20483;-66
2021/05/15 04:36:14;;;;;;;17.65;7.22;;;11.10;99.90;;;-145.59;100.00;63944.34;5057699;28;20037;-65
2021/05/15 04:38:39;;;;;;;15.07;6.00;;;11.10;99.90;;;-145.59;100.00;63944.34;5074603;28;20039;-66
2021/05/15 04:41:05;;;;;;;10.00;6.32;;;11.20;99.90;;;-145.59;100.00;63944.34;5074449;28;20517;-65
2021/05/15 04:43:31;;;;;;;7.95;5.47;;;11.10;99.90;;;-145.59;100.00;63944.34;5074332;28;20571;-66
2021/05/15 04:45:57;;;;;;;8.18;5.57;;;11.10;99.90;;;-145.59;100.00;63944.34;5074394;28;20582;-64
2021/05/15 04:48:23;;;;;;;10.93;5.13;;;11.20;99.90;;;-145.59;100.00;63944.34;5075442;28;20028;-65
2021/05/15 04:50:49;;;;;;;11.05;5.82;;;11.00;99.90;;;-145.59;100.00;63944.34;5057655;28;20040;-71
2021/05/15 04:53:15;;;;;;;9.38;5.57;;;11.00;99.90;;;-145.59;100.00;63944.34;5057593;28;20046;-71
2021/05/15 04:55:41;;;;;;;9.40;4.28;;;11.00;99.90;;;-145.59;100.00;63944.34;5074129;28;20033;-71
2021/05/15 04:58:06;;;;;;;5.95;4.43;;;11.00;99.90;;;-145.59;100.00;63944.34;5074149;28;20063;-71
2021/05/15 05:00:32;;;;;;;7.85;5.28;;;10.90;99.90;;;-145.59;100.00;63944.34;5057581;28;20111;-71
2021/05/15 05:02:58;;;;;;;8.07;4.55;;;10.90;99.90;;;-145.59;100.00;63944.34;5074319;28;20071;-73
2021/05/15 05:05:24;;;;;;;10.82;5.15;;;10.90;99.90;;;-145.59;100.00;63944.34;5075429;28;20541;-72
2021/05/15 05:07:51;;;;;;;8.68;5.28;;;10.80;99.90;;;-145.59;100.00;63944.34;5073942;28;20043;-62
2021/05/15 05:10:17;;;;;;;4.85;4.20;;;10.80;99.90;;;-145.59;100.00;63944.34;5057399;28;20512;-63
2021/05/15 05:12:43;;;;;;;8.68;5.35;;;10.70;99.90;;;-145.59;100.00;63944.34;5074133;28;20048;-66
2021/05/15 05:15:11;;;;;;;7.85;4.82;;;10.70;99.90;;;-145.59;100.00;63944.34;5074923;28;20090;-63
2021/05/15 05:17:37;;;;;;;11.90;5.28;;;10.60;99.90;;;-145.59;100.00;63944.34;5073715;28;20025;-64
2021/05/15 05:20:04;;;;;;;8.20;4.43;;;10.60;99.90;;;-145.59;100.00;63944.34;5073590;28;20142;-64
2021/05/15 05:22:30;;;;;;;6.47;4.15;;;10.60;99.90;;;-145.59;100.00;63944.34;5074662;28;20029;-65
2021/05/15 05:24:57;;;;;;;8.13;4.28;;;10.60;99.90;;;-145.59;100.00;63944.34;5073658;28;20044;-64
2021/05/15 05:27:22;;;;;;;6.43;4.05;;;10.50;99.90;;;-145.59;100.00;63944.34;5074997;28;20032;-64
2021/05/15 05:29:48;;;;;;;5.63;3.90;;;10.60;99.90;;;-145.59;100.00;63944.34;5073314;28;20132;-63
2021/05/15 05:32:15;;;;;;;5.30;3.03;;;10.70;99.90;;;-145.59;100.00;63944.34;5074479;28;20029;-66
2021/05/15 05:34:41;;;;;;;4.32;3.08;;;10.60;99.90;;;-145.59;100.00;63944.34;5073301;28;20428;-64
2021/05/15 05:37:07;;;;;;;3.88;3.10;;;10.60;99.90;;;-145.59;100.00;63944.34;5056556;28;20434;-63
2021/05/15 05:39:33;;;;;;;3.88;2.45;;;10.60;99.90;;;-145.59;100.00;63944.34;5073220;28;20049;-62
2021/05/15 05:41:59;;;;;;;3.20;2.55;;;10.60;99.90;;;-145.59;100.00;63944.34;5056565;28;20032;-63
2021/05/15 05:44:26;;;;;;;4.78;2.90;;;10.50;99.90;;;-145.59;100.00;63944.34;5056351;28;20486;-62
2021/05/15 05:46:52;;;;;;;2.03;1.83;;;10.50;99.90;;;-145.59;100.00;63944.34;5056462;28;20031;-65
2021/05/15 05:49:18;;;;;;;3.28;2.63;;;10.50;99.90;;;-145.59;100.00;63944.34;5072158;28;20119;-62
2021/05/15 05:51:44;;;;;;;3.55;2.15;;;10.50;99.90;;;-145.59;100.00;63944.34;5073384;28;20566;-66
2021/05/15 05:54:10;;;;;;;3.15;2.63;;;10.50;99.90;;;-145.59;100.00;63944.34;5056554;28;20487;-63
2021/05/15 05:56:36;;;;;;;3.80;2.92;;;10.50;99.90;;;-145.59;100.00;63944.34;5072942;28;20042;-66
2021/05/15 05:59:02;;;;;;;4.50;2.60;;;10.50;99.90;;;-145.59;100.00;63944.34;5072813;28;20131;-62
2021/05/15 06:01:28;;;;;;;5.10;2.92;;;10.50;99.90;;;-145.59;100.00;63944.34;5072974;28;20035;-64
2021/05/15 06:03:54;;;;;;;3.28;2.78;;;10.40;99.90;;;-145.59;100.00;63944.34;5073888;28;20075;-61
2021/05/15 06:06:20;;;;;;;3.45;3.15;;;10.40;99.90;;;-145.59;100.00;63944.34;5073353;28;20474;-61
2021/05/15 06:08:46;;;;;;;2.80;2.60;;;10.30;99.90;;;-145.59;100.00;63944.34;5072597;28;20048;-62
2021/05/15 06:11:12;;;;;;;3.25;2.45;;;10.30;99.90;;;-145.59;100.00;63944.34;5072737;28;20081;-62
2021/05/15 06:13:38;;;;;;;3.92;2.92;;;10.20;99.90;;;-145.59;100.00;63944.34;5072519;28;20096;-63
2021/05/15 06:16:05;;;;;;;4.50;2.88;;;10.20;99.90;;;-145.59;100.00;63944.34;5074008;28;20036;-63
2021/05/15 06:18:31;;;;;;;5.95;3.13;;;10.20;99.90;;;-145.59;100.00;63944.34;5072408;28;20403;-62
2021/05/15 06:20:57;;;;;;;3.72;2.92;;;10.30;99.90;;;-145.59;100.00;63944.34;5072524;28;20513;-61
2021/05/15 06:23:23;;;;;;;3.60;2.85;;;10.30;99.90;;;-145.59;100.00;63944.34;5072458;28;20024;-62
2021/05/15 06:25:49;;;;;;;6.82;2.90;;;10.40;99.90;;;-145.59;100.00;63944.34;5072667;28;20047;-65
2021/05/15 06:28:15;;;;;;;4.45;2.90;;;10.50;99.90;;;-145.59;100.00;63944.34;5072569;28;20107;-62
2021/05/15 06:30:42;;;;;;;3.97;2.97;;;10.60;99.90;;;-145.59;100.00;63944.34;5073317;28;20499;-68
2021/05/15 06:33:08;;;;;;;4.78;2.88;;;10.60;99.90;;;-145.59;100.00;63944.34;5072257;28;20037;-64
2021/05/15 06:35:36;;;;;;;3.90;2.90;;;10.60;99.90;;;-145.59;100.00;63944.34;5072365;28;20115;-66
2021/05/15 06:38:02;;;;;;;4.18;2.83;;;10.60;99.90;;;-145.59;100.00;63944.34;5071930;28;20028;-67
2021/05/15 06:40:28;;;;;;;2.53;2.13;;;10.60;99.90;;;-145.59;100.00;63944.34;5055415;28;20146;-65
2021/05/15 06:42:54;;;;;;;6.10;3.00;;;10.60;99.90;;;-145.59;100.00;63944.34;5072198;28;20024;-63
2021/05/15 06:45:20;;;;;;;5.20;2.70;;;10.70;99.90;;;-145.59;100.00;63944.34;5072350;28;20166;-68
2021/05/15 06:47:46;;;;;;;5.00;3.08;;;10.60;99.90;;;-145.59;100.00;63944.34;5072375;28;20032;-66
2021/05/15 06:50:12;;;;;;;3.28;2.72;;;10.60;99.90;;;-145.59;100.00;63944.34;5072546;28;20488;-65
2021/05/15 06:52:38;;;;;;;4.65;3.58;;;10.60;99.90;;;-145.59;100.00;63944.34;5071895;28;20028;-60
2021/05/15 06:55:07;;;;;;;3.50;2.88;;;10.70;99.90;;;-145.59;100.00;63944.34;5071896;28;20033;-65
2021/05/15 06:57:36;;;;;;;5.00;2.85;;;10.90;99.90;;;-145.59;100.00;63944.34;5073311;28;20037;-64
2021/05/15 07:00:05;;;;;;;3.55;2.72;;;10.90;99.90;;;-145.59;100.00;63944.34;5072354;28;20547;-65
2021/05/15 07:02:30;;;;;;;5.28;3.20;;;10.90;99.90;;;-145.59;100.00;63944.34;5055150;28;20048;-61
2021/05/15 07:04:56;;;;;;;4.90;3.13;;;10.90;99.90;;;-145.59;100.00;63944.34;5072968;28;20499;-63
2021/05/15 07:07:22;;;;;;;3.63;3.22;;;11.10;99.90;;;-145.59;100.00;63944.34;5072206;28;20180;-63
2021/05/15 07:09:51;;;;;;;5.10;2.97;;;11.10;99.90;;;-145.59;100.00;63944.34;5072746;28;20115;-63
2021/05/15 07:12:17;;;;;;;4.68;3.60;;;11.30;99.90;;;-145.59;100.00;63944.34;5072904;28;20044;-69
2021/05/15 07:14:44;;;;;;;5.10;3.58;;;11.40;99.90;;;-145.59;100.00;63944.34;5073016;28;20364;-67
2021/05/15 07:17:11;;;;;;;4.35;3.05;;;11.60;99.90;;;-145.59;100.00;63944.34;5055102;28;20021;-62
2021/05/15 07:19:37;;;;;;;5.05;3.75;;;11.70;99.90;;;-145.59;100.00;63944.34;5055075;28;20483;-64
2021/05/15 07:22:02;;;;;;;7.30;3.60;;;11.80;99.90;;;-145.59;100.00;63944.34;5071636;28;20021;-64
2021/05/15 07:24:28;;;;;;;4.28;3.00;;;11.90;99.90;;;-145.59;100.00;63944.34;5071744;28;20044;-64
2021/05/15 07:26:54;;;;;;;4.57;4.07;;;12.00;99.90;;;-145.59;100.00;63944.34;5072745;28;20506;-63
2021/05/15 07:29:20;;;;;;;3.95;3.55;;;12.10;99.90;;;-145.59;100.00;63944.34;5071173;28;20126;-68
2021/05/15 07:31:46;;;;;;;3.88;3.47;;;12.10;99.90;;;-145.59;100.00;63944.34;5088356;28;20040;-66
2021/05/15 07:34:11;;;;;;;5.32;3.95;;;12.10;99.90;;;-145.59;100.00;63944.34;5071705;28;20024;-61
2021/05/15 07:36:37;;;;;;;8.05;3.35;;;12.20;99.90;;;-145.59;100.00;63944.34;5038349;28;20071;-64
2021/05/15 07:39:05;;;;;;;4.28;3.70;;;12.30;99.90;;;-145.59;100.00;63944.34;5071579;28;20499;-63
2021/05/15 07:41:30;;;;;;;7.13;4.03;;;12.30;99.90;;;-145.59;100.00;63944.34;5054831;28;20086;-61
2021/05/15 07:43:57;;;;;;;4.18;3.63;;;12.30;99.90;;;-145.59;100.00;63944.34;5071576;28;20429;-61
2021/05/15 07:46:22;;;;;;;3.65;3.28;;;12.30;99.90;;;-145.59;100.00;63944.34;5071445;28;20024;-63
2021/05/15 07:48:48;;;;;;;6.30;3.88;;;12.30;99.90;;;-145.59;100.00;63944.34;5071589;28;20459;-64
2021/05/15 07:51:20;;;;;;;5.18;3.58;;;12.40;99.90;;;-145.59;100.00;63944.34;5071531;28;20466;-69
2021/05/15 07:53:51;;;;;;;4.47;3.28;;;12.50;99.90;;;-145.59;100.00;63944.34;5071852;28;20033;-62
2021/05/15 07:56:17;;;;;;;7.32;3.75;;;12.50;99.90;;;-145.59;100.00;63944.34;5071291;28;20029;-61
2021/05/15 07:58:44;;;;;;;5.03;3.58;;;12.50;99.90;;;-145.59;100.00;63944.34;5071066;28;20106;-62
2021/05/15 08:01:10;;;;;;;6.32;4.07;;;12.40;99.90;;;-145.59;100.00;63944.34;5071458;28;20119;-63
2021/05/15 08:03:36;;;;;;;7.90;3.85;;;12.40;99.90;;;-145.59;100.00;63944.34;5071359;28;20043;-62
2021/05/15 08:06:03;;;;;;;4.82;3.85;;;12.40;99.90;;;-145.59;100.00;63944.34;5071316;28;20029;-63
2021/05/15 08:08:29;;;;;;;4.13;3.33;;;12.50;99.90;;;-145.59;100.00;63944.34;5073146;28;20060;-67
2021/05/15 08:10:55;;;;;;;4.20;3.78;;;12.60;99.90;;;-145.59;100.00;63944.34;5072698;28;20055;-64
2021/05/15 08:13:23;;;;;;;4.57;3.60;;;12.60;99.90;;;-145.59;100.00;63944.34;5058343;28;20075;-61
2021/05/15 08:15:50;;;;;;;6.63;3.95;;;12.60;99.90;;;-145.59;100.00;63944.34;5075064;28;20485;-64
2021/05/15 08:18:15;;;;;;;5.38;3.85;;;12.80;99.90;;;-145.59;100.00;63944.34;5076098;28;20028;-66
2021/05/15 08:20:41;;;;;;;7.28;4.70;;;13.10;99.90;;;-145.59;100.00;63944.34;5075420;28;20044;-60
2021/05/15 08:23:07;;;;;;;5.65;4.40;;;13.40;99.90;;;-145.59;100.00;63944.34;5075911;28;20044;-65
2021/05/15 08:25:33;;;;;;;4.18;3.78;;;13.80;99.90;;;-145.59;100.00;63944.34;5076226;28;20509;-64
2021/05/15 08:28:03;;;;;;;3.80;3.28;;;14.30;99.90;;;-145.59;100.00;63944.34;5075822;28;20155;-61
2021/05/15 08:30:31;;;;;;;4.95;4.13;;;14.80;99.90;;;-145.59;100.00;63944.34;5074857;28;20552;-66
2021/05/15 08:32:57;;;;;;;12.90;4.15;;;15.60;99.90;;;-145.59;100.00;63944.34;5074572;28;20376;-64
2021/05/15 08:35:25;;;;;;;5.28;3.83;;;16.20;99.90;;;-145.59;100.00;63944.34;5074404;28;20114;-62
2021/05/15 08:37:52;;;;;;;4.22;3.83;;;17.00;99.90;;;-145.59;100.00;63944.34;5074320;28;20360;-62
2021/05/15 08:40:21;;;;;;;6.25;4.22;;;17.90;99.90;;;-145.59;100.00;63944.34;5074319;28;20032;-62
2021/05/15 08:42:48;;;;;;;5.95;3.88;;;18.90;99.10;;;-145.59;100.00;63944.34;5074505;28;20029;-64
2021/05/15 08:45:16;;;;;;;6.32;4.10;;;19.50;98.00;;;-145.59;100.00;63944.34;5074599;28;20040;-65
2021/05/15 08:47:44;;;;;;;5.65;4.00;;;20.30;98.50;;;-145.59;100.00;63944.34;5057999;28;20064;-63
2021/05/15 08:50:16;;;;;;;6.43;4.00;;;22.30;94.40;;;-145.59;100.00;63944.34;5074281;28;20032;-67
2021/05/15 08:52:46;;;;;;;5.97;4.53;;;24.40;92.00;;;-145.59;100.00;63944.34;5040841;28;20037;-65
2021/05/15 08:55:18;;;;;;;5.05;4.10;;;25.30;90.30;;;-145.59;100.00;63944.34;5074093;28;20029;-66
2021/05/15 08:57:44;;;;;;;5.40;4.32;;;25.50;88.30;;;-145.59;100.00;63944.34;5074544;28;20064;-63
2021/05/15 09:00:25;;;;;;;5.53;4.60;;;25.40;85.40;;;-145.59;100.00;63944.34;5057393;28;20059;-65
2021/05/15 09:02:56;;;;;;;6.47;4.50;;;25.90;84.40;;;-145.59;100.00;63944.34;5074028;28;20032;-63
2021/05/15 09:05:23;;;;;;;5.53;4.25;;;26.60;80.70;;;-145.59;100.00;63944.34;5057430;28;20463;-67
2021/05/15 09:07:53;;;;;;;8.60;4.28;;;26.80;80.50;;;-145.59;100.00;63944.34;5074300;28;20117;-63
2021/05/15 09:10:22;;;;;;;4.45;3.67;;;27.00;78.20;;;-145.59;100.00;63944.34;5057435;28;20518;-67
2021/05/15 09:12:51;;;;;;;6.78;5.57;;;26.40;76.40;;;-145.59;100.00;63944.34;5057298;28;20020;-64
2021/05/15 09:15:19;;;;;;;6.18;5.03;;;25.60;78.20;;;-145.59;100.00;63944.34;5073740;28;20048;-65
2021/05/15 09:17:51;;;;;;;5.18;4.68;;;24.90;81.20;;;-145.59;100.00;63944.34;5074115;28;20031;-65
2021/05/15 09:20:23;;;;;;;6.43;4.43;;;25.70;77.90;;;-145.59;100.00;63944.34;5073907;28;20046;-70
2021/05/15 09:22:49;;;;;;;4.72;4.25;;;26.90;74.30;;;-145.59;100.00;63944.34;5073495;28;20503;-64
2021/05/15 09:25:16;;;;;;;6.45;4.10;;;27.60;73.50;;;-145.59;100.00;63944.34;5073667;28;20028;-67
2021/05/15 09:27:42;;;;;;;5.28;4.25;;;27.50;74.10;;;-145.59;100.00;63944.34;5073999;28;20372;-64
2021/05/15 09:30:09;;;;;;;6.45;4.82;;;28.10;72.80;;;-145.59;100.00;63944.34;5074581;28;20525;-66
2021/05/15 09:32:35;;;;;;;5.35;4.20;;;29.00;71.20;;;-145.59;100.00;63944.34;5073662;28;20039;-63
2021/05/15 09:35:03;;;;;;;5.13;4.55;;;28.40;68.20;;;-145.59;100.00;63944.34;5073430;28;20033;-68
2021/05/15 09:37:39;;;;;;;6.50;4.80;;;28.10;69.90;;;-145.59;100.00;63944.34;5073376;28;20068;-63
2021/05/15 09:40:22;;;;;;;5.75;4.43;;;27.80;69.60;;;-145.59;100.00;63944.34;5074753;28;20032;-66
2021/05/15 09:42:58;;;;;;;5.95;4.18;;;28.00;66.90;;;-145.59;100.00;63944.34;5074861;28;20517;-64
2021/05/15 09:45:33;;;;;;;5.82;5.15;;;27.70;67.30;;;-145.59;100.00;63944.34;5073458;28;20029;-67
2021/05/15 09:48:06;;;;;;;7.47;4.63;;;26.90;68.70;;;-145.59;100.00;63944.34;5073325;28;20076;-67
2021/05/15 09:50:40;;;;;;;10.55;5.20;;;26.10;70.40;;;-145.59;100.00;63944.34;5072878;28;20558;-65
2021/05/15 09:53:10;;;;;;;7.78;5.43;;;25.40;71.80;;;-145.59;100.00;63944.34;5056494;28;20048;-64
2021/05/15 09:55:37;;;;;;;6.50;4.90;;;24.80;72.70;;;-145.59;100.00;63944.34;5073528;28;20089;-67
2021/05/15 09:58:07;;;;;;;7.22;5.00;;;24.50;72.50;;;-145.59;100.00;63944.34;5072982;28;20035;-67
2021/05/15 10:00:49;;;;;;;5.88;5.15;;;24.20;71.80;;;-145.59;100.00;63944.34;5073014;28;20028;-66
2021/05/15 10:03:32;;;;;;;8.13;5.40;;;23.80;72.80;;;-145.59;100.00;63944.34;5056548;28;20186;-63